Observations for PRESTWICK CIV NAVY, United Kingdom (EGPK)

EGPK 221450Z 25019KT 9000 -RA FEW013 SCT020 BKN025 11/09 Q1035  
EGPK 221420Z 26015KT 9999 -RA FEW012 BKN020 12/08 Q1035 
EGPK 221350Z 25017KT 9999 -RA FEW015 BKN025 11/08 Q1036 
EGPK 221320Z 25015KT 9999 -RA FEW015 BKN025 11/08 Q1036 
EGPK 221250Z 25015KT 9999 -RA FEW015 BKN025 11/08 Q1036 
EGPK 221220Z 26014KT 9999 FEW015 BKN025 12/08 Q1036 
EGPK 221150Z 25012KT 9999 FEW015 SCT028 12/07 Q1036 
EGPK 221120Z 26013KT 9999 FEW015 SCT028 12/06 Q1037 
EGPK 221050Z 25012KT 9999 FEW015 SCT035 12/06 Q1037 
EGPK 221020Z 26013KT 9999 FEW015 SCT035 12/07 Q1037 
EGPK 220950Z 26012KT 9999 FEW015 SCT030 12/07 Q1037 
EGPK 220920Z 26011KT 9999 FEW015 SCT030 11/07 Q1037 
EGPK 220850Z 27014KT 9999 VCSH FEW015 SCT030 11/06 Q1037
EGPK 220820Z 25012KT 9999 FEW015 SCT030 10/07 Q1036 
EGPK 220750Z 26011KT 9999 SCT030 10/06 Q1036
EGPK 220720Z 27014KT 9999 SCT030 09/06 Q1036
EGPK 220650Z 26013KT 9999 SCT030 09/06 Q1036
EGPK 220620Z 26009KT 9999 SCT030 09/06 Q1036
EGPK 220550Z 27013KT 9999 FEW030 10/06 Q1035
EGPK 220450Z 30009KT 9999 FEW030 10/06 Q1035
EGPK 220350Z 30013KT 9999 FEW028 10/05 Q1034
EGPK 220250Z 28012KT 9999 FEW025 10/04 Q1034
EGPK 220150Z 28016KT 9999 FEW025 10/03 Q1034
EGPK 220050Z 29015KT 9999 SCT025 10/03 Q1033
EGPK 212350Z 31013KT 9999 SCT029 10/06 Q1033
EGPK 212320Z 27014KT 9999 FEW030 10/05 Q1033
EGPK 212250Z 27015KT 9999 FEW028 10/05 Q1032
EGPK 212220Z 27014KT 9999 FEW028 10/05 Q1032
EGPK 212150Z 28011KT 9999 FEW030 09/05 Q1032
EGPK 212120Z 27014KT 9999 SCT025 10/05 Q1032
EGPK 212050Z 27013KT 9999 SCT025 10/05 Q1031
EGPK 212020Z 28011KT 9999 SCT026 10/05 Q1031
EGPK 211950Z 28013KT 9999 FEW012 SCT030 10/05 Q1031 
EGPK 211920Z 27014KT 9999 FEW012 SCT030 10/05 Q1031 
EGPK 211850Z 28011KT 9999 FEW012 SCT030 10/04 Q1030 
EGPK 211820Z 28012KT 260V320 9999 FEW012 SCT030 10/04 Q1030 
EGPK 211750Z 27014KT 9999 FEW012 BKN026 10/05 Q1029 
EGPK 211720Z 30013KT 9999 FEW012 BKN026 10/05 Q1029 
EGPK 211650Z 30014KT 9999 FEW012 BKN026 11/04 Q1029 
EGPK 211620Z 30018KT 9999 FEW012 BKN026 10/03 Q1028 
EGPK 211550Z 30018KT 9999 FEW012 BKN026 12/05 Q1028 
EGPK 211520Z 30015KT 9999 FEW012 BKN026 12/07 Q1027 
EGPK 211450Z 30015KT 9999 FEW012 BKN026 12/07 Q1027 
EGPK 211420Z 30015KT 9999 FEW012 SCT026 12/07 Q1026 
EGPK 211350Z 30015KT 9999 SCT012 BKN026 12/09 Q1026